Veidnes — LLSD — position and weather

sailwx.info

Track history (hours):
 
Tides and Currents Weather Stations Pressure Air Temp Water Temp Dewpoint Dewpoint Depression Visibility Wind Speed Wind Dir Waves Ship Positions

Veidnes

Last reported at 2017-Dec-11 17:00 UTC. Time now 2017-Dec-14 04:33 UTC.
Position N 67°43' E 015°13'.

Length 51 m; draft 5 m.

Type: Other ship. MMSI: 259237000.

Date/timePositionNaut miles runAvg speedWind from/ knotsBaromVisibWave heightAir tempDewpointWater temp
2017-Dec-11 17:00N 67°43' E 015°13'611.0
2017-Dec-11 16:30N 67°40' E 015°00'510.2
2017-Dec-11 16:00N 67°39' E 014°47'4 8.9
2017-Dec-11 15:30N 67°42' E 014°38'4 8.6
2017-Dec-11 15:00N 67°45' E 014°32'5 9.7
2017-Dec-11 14:30N 67°50' E 014°37'510.5
2017-Dec-11 13:59N 67°53' E 014°49'510.7
2017-Dec-11 13:30N 67°55' E 015°02'510.3
2017-Dec-11 13:00N 67°55' E 015°15'5 9.5
2017-Dec-11 12:30N 67°59' E 015°20'2 3.5
2017-Dec-11 11:58N 68°01' E 015°20'0 0.0
2017-Dec-11 11:28N 68°01' E 015°20'0 0.0
2017-Dec-11 10:58N 68°01' E 015°20'0 0.0
2017-Dec-11 10:22N 68°01' E 015°20'0 0.0
2017-Dec-11 09:57N 68°01' E 015°20'0 0.0
2017-Dec-11 09:19N 68°01' E 015°20'0 0.0
2017-Dec-11 08:55N 68°01' E 015°20'0 0.0
2017-Dec-11 08:27N 68°01' E 015°20'0 0.0
2017-Dec-11 07:57N 68°01' E 015°20'0 0.0
2017-Dec-11 07:30N 68°01' E 015°20'0 0.0
2017-Dec-11 07:00N 68°01' E 015°20'0 0.0
2017-Dec-11 06:21N 68°01' E 015°20'0 0.0
2017-Dec-11 05:57N 68°01' E 015°20'0 0.0
2017-Dec-11 05:30N 68°01' E 015°20'0 0.0
2017-Dec-11 05:00N 68°01' E 015°20'0 0.0
2017-Dec-11 04:30N 68°01' E 015°20'0 0.0
2017-Dec-11 04:00N 68°01' E 015°20'0 0.0
2017-Dec-11 03:30N 68°01' E 015°20'0 0.0
2017-Dec-11 02:45N 68°01' E 015°20'0 0.0
2017-Dec-11 02:15N 68°01' E 015°20'0 0.0
2017-Dec-11 01:48N 68°01' E 015°20'0 0.0
2017-Dec-11 01:30N 68°01' E 015°20'0 0.0
2017-Dec-11 00:54N 68°01' E 015°20'0 0.0
2017-Dec-11 00:30N 68°01' E 015°20'0 0.0
2017-Dec-11 00:00N 68°01' E 015°20'0 0.0
2017-Dec-10 23:30N 68°01' E 015°20'0 0.0
2017-Dec-10 22:54N 68°01' E 015°20'1 1.8
2017-Dec-10 22:30N 68°00' E 015°20'5 9.4
2017-Dec-10 22:00N 67°56' E 015°19'4 8.9
2017-Dec-10 21:30N 67°54' E 015°07'5 9.1
2017-Dec-10 21:00N 67°54' E 014°55'5 9.5
2017-Dec-10 20:29N 67°52' E 014°44'5 9.2
2017-Dec-10 20:00N 67°49' E 014°35'5 9.0
2017-Dec-10 19:30N 67°45' E 014°31'4 8.4
2017-Dec-10 19:00N 67°41' E 014°39'4 8.2
2017-Dec-10 18:30N 67°39' E 014°48'5 9.4
2017-Dec-10 18:00N 67°40' E 014°60'5 9.6
2017-Dec-10 17:30N 67°43' E 015°11'4 8.9
2017-Dec-10 17:00N 67°45' E 015°21'2 3.6
2017-Dec-10 16:21N 67°44' E 015°27'0 0.0
2017-Dec-10 16:00N 67°44' E 015°27'0 0.0
2017-Dec-10 15:30N 67°44' E 015°27'3 6.7
2017-Dec-10 15:00N 67°45' E 015°18'611.1
2017-Dec-10 14:30N 67°42' E 015°06'611.3
2017-Dec-10 13:59N 67°39' E 014°53'4 8.3
2017-Dec-10 13:30N 67°41' E 014°43'3 6.9
2017-Dec-10 12:59N 67°44' E 014°46'0 0.0
2017-Dec-10 12:29N 67°44' E 014°46'0 0.0
2017-Dec-10 11:59N 67°44' E 014°46'0 0.0
2017-Dec-10 11:29N 67°44' E 014°46'0 0.0
2017-Dec-10 10:59N 67°44' E 014°46'0 0.0
2017-Dec-10 10:29N 67°44' E 014°46'0 0.0
2017-Dec-10 09:59N 67°44' E 014°46'0 0.0
2017-Dec-10 09:29N 67°44' E 014°46'0 0.0
2017-Dec-10 08:59N 67°44' E 014°46'0 0.0
2017-Dec-10 08:29N 67°44' E 014°46'0 0.0
2017-Dec-10 07:59N 67°44' E 014°46'0 0.0
2017-Dec-10 07:29N 67°44' E 014°46'0 0.0
2017-Dec-10 06:59N 67°44' E 014°46'0 0.0
2017-Dec-10 06:29N 67°44' E 014°46'0 0.0
2017-Dec-10 05:59N 67°44' E 014°46'0 0.0
2017-Dec-10 05:29N 67°44' E 014°46'0 0.0
2017-Dec-10 04:59N 67°44' E 014°46'0 0.0
2017-Dec-10 04:29N 67°44' E 014°46'0 0.0
2017-Dec-10 03:59N 67°44' E 014°46'0 0.0
2017-Dec-10 03:29N 67°44' E 014°46'0 0.0
2017-Dec-10 02:59N 67°44' E 014°46'0 0.0
2017-Dec-10 02:29N 67°44' E 014°46'0 0.0
2017-Dec-10 01:59N 67°44' E 014°46'0 0.0
2017-Dec-10 01:29N 67°44' E 014°46'0 0.0
2017-Dec-10 00:59N 67°44' E 014°46'0 0.0
2017-Dec-10 00:29N 67°44' E 014°46'0 0.0
2017-Dec-09 23:59N 67°44' E 014°46'0 0.0
2017-Dec-09 23:26N 67°44' E 014°46'0 0.0
2017-Dec-09 22:59N 67°44' E 014°46'0 0.0
2017-Dec-09 22:29N 67°44' E 014°46'0 0.0
2017-Dec-09 21:59N 67°44' E 014°46'0 0.0
2017-Dec-09 21:29N 67°44' E 014°46'0 0.0
2017-Dec-09 20:59N 67°44' E 014°46'0 0.0
2017-Dec-09 20:29N 67°44' E 014°46'0 0.0
2017-Dec-09 19:59N 67°44' E 014°46'0 0.0
2017-Dec-09 19:29N 67°44' E 014°46'0 0.0
2017-Dec-09 18:59N 67°44' E 014°46'0 0.0
2017-Dec-09 18:29N 67°44' E 014°46'0 0.0
2017-Dec-09 17:59N 67°44' E 014°46'0 0.0
2017-Dec-09 17:29N 67°44' E 014°46'0 0.0
2017-Dec-09 16:59N 67°44' E 014°46'0 0.0
2017-Dec-09 16:29N 67°44' E 014°46'0 0.0
2017-Dec-09 15:59N 67°44' E 014°46'0 0.0
2017-Dec-09 15:29N 67°44' E 014°46'0 0.0
2017-Dec-09 14:59N 67°44' E 014°46'0 0.0
2017-Dec-09 14:29N 67°44' E 014°46'0 0.0
2017-Dec-09 13:59N 67°44' E 014°46'0 0.0
2017-Dec-09 13:29N 67°44' E 014°46'0 0.0
2017-Dec-09 12:59N 67°44' E 014°46'0 0.0
2017-Dec-09 12:29N 67°44' E 014°46'0 0.0
2017-Dec-09 11:59N 67°44' E 014°46'0 0.0
2017-Dec-09 11:29N 67°44' E 014°46'0 0.0
2017-Dec-09 10:58N 67°44' E 014°46'0 0.0
2017-Dec-09 10:28N 67°44' E 014°46'0 0.0
2017-Dec-09 09:58N 67°44' E 014°46'0 0.0
2017-Dec-09 09:28N 67°44' E 014°46'0 0.0
2017-Dec-09 08:58N 67°44' E 014°46'0 0.0
2017-Dec-09 08:28N 67°44' E 014°46'0 0.0
2017-Dec-09 07:58N 67°44' E 014°46'0 0.0
2017-Dec-09 07:28N 67°44' E 014°46'0 0.0
2017-Dec-09 06:58N 67°44' E 014°46'0 0.0
2017-Dec-09 06:28N 67°44' E 014°46'0 0.0
2017-Dec-09 05:58N 67°44' E 014°46'0 0.0
2017-Dec-09 05:28N 67°44' E 014°46'0 0.0
2017-Dec-09 04:58N 67°44' E 014°46'0 0.0
2017-Dec-09 04:28N 67°44' E 014°46'0 0.0
2017-Dec-09 03:58N 67°44' E 014°46'0 0.0
2017-Dec-09 03:28N 67°44' E 014°46'0 0.0
2017-Dec-09 02:58N 67°44' E 014°46'0 0.0
2017-Dec-09 02:28N 67°44' E 014°46'0 0.0
2017-Dec-09 01:58N 67°44' E 014°46'0 0.0
2017-Dec-09 01:28N 67°44' E 014°46'0 0.0
2017-Dec-09 00:58N 67°44' E 014°46'0 0.0
2017-Dec-09 00:28N 67°44' E 014°46'0 0.0
2017-Dec-08 23:58N 67°44' E 014°46'0 0.0
2017-Dec-08 23:28N 67°44' E 014°46'0 0.0
2017-Dec-08 22:58N 67°44' E 014°46'0 0.0
2017-Dec-08 22:28N 67°44' E 014°46'0 0.0
2017-Dec-08 21:58N 67°44' E 014°46'0 0.0
2017-Dec-08 21:28N 67°44' E 014°46'0 0.0
2017-Dec-08 20:58N 67°44' E 014°46'0 0.0
2017-Dec-08 20:28N 67°44' E 014°46'0 0.0
2017-Dec-08 19:58N 67°44' E 014°46'0 0.0
2017-Dec-08 19:28N 67°44' E 014°46'0 0.0
2017-Dec-08 18:58N 67°44' E 014°46'0 0.0
2017-Dec-08 18:28N 67°44' E 014°46'0 0.0
2017-Dec-08 17:58N 67°44' E 014°46'0 0.0
2017-Dec-08 17:28N 67°44' E 014°46'0 0.0
2017-Dec-08 16:58N 67°44' E 014°46'0 0.0
2017-Dec-08 16:28N 67°44' E 014°46'0 0.0
2017-Dec-08 15:58N 67°44' E 014°46'0 0.0
2017-Dec-08 15:28N 67°44' E 014°46'0 0.0
2017-Dec-08 14:58N 67°44' E 014°46'0 0.0
2017-Dec-08 14:28N 67°44' E 014°46'0 0.0
2017-Dec-08 13:58N 67°44' E 014°46'0 0.0
2017-Dec-08 13:28N 67°44' E 014°46'0 0.0
2017-Dec-08 12:58N 67°44' E 014°46'0 0.0
2017-Dec-08 12:28N 67°44' E 014°46'0 0.0
2017-Dec-08 11:58N 67°44' E 014°46'0 0.0
2017-Dec-08 11:28N 67°44' E 014°46'0 0.0
2017-Dec-08 10:58N 67°44' E 014°46'0 0.0
2017-Dec-08 10:28N 67°44' E 014°46'0 0.0
2017-Dec-08 09:58N 67°44' E 014°46'0 0.0
2017-Dec-08 09:28N 67°44' E 014°46'0 0.0
2017-Dec-08 08:58N 67°44' E 014°46'0 0.0
2017-Dec-08 08:28N 67°44' E 014°46'0 0.0
2017-Dec-08 07:58N 67°44' E 014°46'0 0.0
2017-Dec-08 07:28N 67°44' E 014°46'0 0.0
2017-Dec-08 06:58N 67°44' E 014°46'0 0.0
2017-Dec-08 06:28N 67°44' E 014°46'0 0.0
2017-Dec-08 05:58N 67°44' E 014°46'0 0.0
2017-Dec-08 05:28N 67°44' E 014°46'0 0.0
2017-Dec-08 04:58N 67°44' E 014°46'0 0.0
2017-Dec-08 04:28N 67°44' E 014°46'0 0.0
2017-Dec-08 03:58N 67°44' E 014°46'0 0.0
2017-Dec-08 03:27N 67°44' E 014°46'0 0.0
2017-Dec-08 03:01N 67°44' E 014°46'0 0.0
2017-Dec-08 02:31N 67°44' E 014°46'0 0.0
2017-Dec-08 02:00N 67°44' E 014°46'0 0.0
2017-Dec-08 01:30N 67°44' E 014°46'0 0.0
2017-Dec-08 01:00N 67°44' E 014°46'0 0.0
2017-Dec-08 00:30N 67°44' E 014°46'0 0.0
2017-Dec-08 00:00N 67°44' E 014°46'0 0.0
2017-Dec-07 23:30N 67°44' E 014°46'0 0.0
2017-Dec-07 23:00N 67°44' E 014°46'0 0.0
2017-Dec-07 22:30N 67°44' E 014°46'0 0.0
2017-Dec-07 22:00N 67°44' E 014°46'0 0.0
2017-Dec-07 21:30N 67°44' E 014°46'0 0.0
2017-Dec-07 21:00N 67°44' E 014°46'0 0.0
2017-Dec-07 20:30N 67°44' E 014°46'0 0.0
2017-Dec-07 20:00N 67°44' E 014°46'0 0.0
2017-Dec-07 19:30N 67°44' E 014°46'0 0.0
2017-Dec-07 19:00N 67°44' E 014°46'0 0.0
2017-Dec-07 18:30N 67°44' E 014°46'0 0.0
2017-Dec-07 18:00N 67°44' E 014°46'0 0.0
2017-Dec-07 17:30N 67°44' E 014°46'0 0.0
2017-Dec-07 17:00N 67°44' E 014°46'0 0.0
2017-Dec-07 16:30N 67°44' E 014°46'0 0.0
2017-Dec-07 16:00N 67°44' E 014°46'3 6.2
2017-Dec-07 15:31N 67°46' E 014°40'4 7.1
2017-Dec-07 15:01N 67°49' E 014°34'510.9
2017-Dec-07 14:30N 67°52' E 014°45'611.3
2017-Dec-07 14:00N 67°54' E 014°59'611.0
2017-Dec-07 13:30N 67°55' E 015°14'5 9.8
2017-Dec-07 13:00N 67°59' E 015°20'2 4.7
2017-Dec-07 12:30N 68°01' E 015°20'0 0.0
2017-Dec-07 12:00N 68°01' E 015°20'0 0.0
2017-Dec-07 11:18N 68°01' E 015°20'0 0.0
2017-Dec-07 11:00N 68°01' E 015°20'0 0.0
2017-Dec-07 10:30N 68°01' E 015°20'0 0.0
2017-Dec-07 10:00N 68°01' E 015°20'0 0.0
2017-Dec-07 09:12N 68°01' E 015°20'0 0.0
2017-Dec-07 08:54N 68°01' E 015°20'0 0.0
2017-Dec-07 08:30N 68°01' E 015°20'0 0.0
2017-Dec-07 08:00N 68°01' E 015°20'0 0.0
2017-Dec-07 07:30N 68°01' E 015°20'0 0.0
2017-Dec-07 07:00N 68°01' E 015°20'0 0.0
2017-Dec-07 06:30N 68°01' E 015°20'0 0.0
2017-Dec-07 05:54N 68°01' E 015°20'0 0.0
2017-Dec-07 05:27N 68°01' E 015°20'0 0.0
2017-Dec-07 04:54N 68°01' E 015°20'0 0.0
2017-Dec-07 04:27N 68°01' E 015°20'0 0.0
2017-Dec-07 03:57N 68°01' E 015°20'0 0.0
2017-Dec-07 03:30N 68°01' E 015°20'0 0.0
2017-Dec-07 02:54N 68°01' E 015°20'0 0.0
2017-Dec-07 02:27N 68°01' E 015°20'0 0.0
2017-Dec-07 02:00N 68°01' E 015°20'0 0.0
2017-Dec-07 01:30N 68°01' E 015°20'0 0.0
2017-Dec-07 00:54N 68°01' E 015°20'0 0.0
2017-Dec-07 00:30N 68°01' E 015°20'3 6.2
2017-Dec-07 00:00N 67°58' E 015°20'4 8.7
2017-Dec-06 23:30N 67°55' E 015°13'5 9.3
2017-Dec-06 23:00N 67°55' E 015°01'5 9.8
2017-Dec-06 22:30N 67°53' E 014°49'5 9.9
2017-Dec-06 22:00N 67°50' E 014°38'5 9.8
2017-Dec-06 21:30N 67°46' E 014°32'4 8.4
2017-Dec-06 21:00N 67°42' E 014°36'  
2017-Dec-04 10:28N 68°01' E 015°20'0 0.0
2017-Dec-04 09:52N 68°01' E 015°20'0 0.0
2017-Dec-04 09:28N 68°01' E 015°20'0 0.0
2017-Dec-04 08:58N 68°01' E 015°20'0 0.0
2017-Dec-04 08:28N 68°01' E 015°20'0 0.0
2017-Dec-04 07:58N 68°01' E 015°20'0 0.0
2017-Dec-04 07:22N 68°01' E 015°20'0 0.0
2017-Dec-04 06:58N 68°01' E 015°20'0 0.0
2017-Dec-04 06:28N 68°01' E 015°20'0 0.0
2017-Dec-04 05:55N 68°01' E 015°20'0 0.0
2017-Dec-04 05:25N 68°01' E 015°20'0 0.0
2017-Dec-04 04:46N 68°01' E 015°20'0 0.0
2017-Dec-04 04:22N 68°01' E 015°20'0 0.0
2017-Dec-04 03:58N 68°01' E 015°20'0 0.0
2017-Dec-04 03:22N 68°01' E 015°20'0 0.0
2017-Dec-04 02:46N 68°01' E 015°20'0 0.0
2017-Dec-04 02:10N 68°01' E 015°20'0 0.0
2017-Dec-04 01:58N 68°01' E 015°20'0 0.0
2017-Dec-04 01:22N 68°01' E 015°20'0 0.0
2017-Dec-04 00:58N 68°01' E 015°20'0 0.0
2017-Dec-04 00:28N 68°01' E 015°20'0 0.0
2017-Dec-03 23:58N 68°01' E 015°20'0 0.0
2017-Dec-03 23:30N 68°01' E 015°20'0 0.0
2017-Dec-03 23:00N 68°01' E 015°20'5 9.1
2017-Dec-03 22:30N 67°56' E 015°20'5 9.4
2017-Dec-03 22:00N 67°54' E 015°09'5 9.6
2017-Dec-03 21:30N 67°54' E 014°56'5 9.9
2017-Dec-03 21:00N 67°52' E 014°45'5 9.8
2017-Dec-03 20:30N 67°49' E 014°34'5 9.6
2017-Dec-03 20:00N 67°44' E 014°31'4 8.7
2017-Dec-03 19:29N 67°41' E 014°40'4 8.2
2017-Dec-03 19:00N 67°39' E 014°49'5 9.5
2017-Dec-03 18:29N 67°40' E 015°01'5 9.7
2017-Dec-03 18:00N 67°43' E 015°12'5 8.3
2017-Dec-03 17:27N 67°44' E 015°23'1 1.1
2017-Dec-03 16:17N 67°44' E 015°26'2 8.5
2017-Dec-03 16:00N 67°45' E 015°21'5 9.7
2017-Dec-03 15:28N 67°42' E 015°09'510.9
2017-Dec-03 14:59N 67°39' E 014°57'510.9
2017-Dec-03 14:30N 67°39' E 014°43'510.1
2017-Dec-03 14:00N 67°44' E 014°46'0 0.3
2017-Dec-03 13:30N 67°44' E 014°46'0 0.0
2017-Dec-03 13:00N 67°44' E 014°46'0 0.0
2017-Dec-03 12:30N 67°44' E 014°46'0 0.3
2017-Dec-03 11:59N 67°44' E 014°46'0 0.0
2017-Dec-03 11:29N 67°44' E 014°46'0 0.0
2017-Dec-03 10:59N 67°44' E 014°46'0 0.0
2017-Dec-03 10:29N 67°44' E 014°46'0 0.0
2017-Dec-03 09:59N 67°44' E 014°46'0 0.0
2017-Dec-03 09:29N 67°44' E 014°46'0 0.0
2017-Dec-03 08:59N 67°44' E 014°46'0 0.0
2017-Dec-03 08:29N 67°44' E 014°46'0 0.0
2017-Dec-03 07:59N 67°44' E 014°46'0 0.0
2017-Dec-03 07:29N 67°44' E 014°46'0 0.0
2017-Dec-03 06:59N 67°44' E 014°46'0 0.0
2017-Dec-03 06:29N 67°44' E 014°46'0 0.0
2017-Dec-03 05:59N 67°44' E 014°46'0 0.0
2017-Dec-03 05:29N 67°44' E 014°46'0 0.0
2017-Dec-03 04:59N 67°44' E 014°46'0 0.0
2017-Dec-03 04:29N 67°44' E 014°46'0 0.0
2017-Dec-03 03:59N 67°44' E 014°46'0 0.0
2017-Dec-03 03:29N 67°44' E 014°46'0 0.0
2017-Dec-03 02:59N 67°44' E 014°46'0 0.0
2017-Dec-03 02:29N 67°44' E 014°46'0 0.0
2017-Dec-03 01:59N 67°44' E 014°46'0 0.0
2017-Dec-03 01:29N 67°44' E 014°46'0 0.0
2017-Dec-03 00:59N 67°44' E 014°46'0 0.0
2017-Dec-03 00:29N 67°44' E 014°46'0 0.0
2017-Dec-02 23:59N 67°44' E 014°46'0 0.0
2017-Dec-02 23:29N 67°44' E 014°46'0 0.0
2017-Dec-02 22:58N 67°44' E 014°46'0 0.0
2017-Dec-02 22:28N 67°44' E 014°46'0 0.0
2017-Dec-02 21:58N 67°44' E 014°46'0 0.0
2017-Dec-02 21:28N 67°44' E 014°46'0 0.0
2017-Dec-02 20:58N 67°44' E 014°46'0 0.0
2017-Dec-02 20:28N 67°44' E 014°46'0 0.0
2017-Dec-02 19:58N 67°44' E 014°46'0 0.0
2017-Dec-02 19:28N 67°44' E 014°46'0 0.0
2017-Dec-02 18:58N 67°44' E 014°46'0 0.0
2017-Dec-02 18:28N 67°44' E 014°46'0 0.0
2017-Dec-02 17:58N 67°44' E 014°46'0 0.0
2017-Dec-02 17:28N 67°44' E 014°46'0 0.0
2017-Dec-02 16:58N 67°44' E 014°46'0 0.0
2017-Dec-02 16:29N 67°44' E 014°46'1 1.8
2017-Dec-02 16:00N 67°45' E 014°45'5 9.9
2017-Dec-02 15:30N 67°46' E 014°33'510.0
2017-Dec-02 15:01N 67°51' E 014°40'510.4
2017-Dec-02 14:30N 67°56' E 014°45'510.9
2017-Dec-02 14:00N 68°01' E 014°48'510.5
2017-Dec-02 13:30N 68°06' E 014°51'510.3
2017-Dec-02 13:00N 68°11' E 014°55'510.6
2017-Dec-02 12:30N 68°16' E 014°58'510.3
2017-Dec-02 11:59N 68°21' E 015°02'4 8.7
2017-Dec-02 11:30N 68°25' E 015°08'5 9.1
2017-Dec-02 11:00N 68°29' E 015°13'4 8.8
2017-Dec-02 10:29N 68°33' E 015°11'510.3
2017-Dec-02 10:00N 68°38' E 015°19'510.1
2017-Dec-02 09:29N 68°42' E 015°26'510.7
2017-Dec-02 09:00N 68°47' E 015°26'510.1
2017-Dec-02 08:30N 68°52' E 015°23'3 5.8
2017-Dec-02 08:00N 68°54' E 015°17'0 0.0
2017-Dec-02 07:30N 68°54' E 015°17'3 5.6
2017-Dec-02 07:00N 68°53' E 015°24'5 9.8
2017-Dec-02 06:30N 68°48' E 015°26'5 9.8
2017-Dec-02 06:00N 68°43' E 015°26'4 8.8
2017-Dec-02 05:30N 68°39' E 015°22'510.1
2017-Dec-02 05:00N 68°35' E 015°13'5 9.6
2017-Dec-02 04:30N 68°30' E 015°11'4 8.2
2017-Dec-02 04:00N 68°26' E 015°09'4 7.3
2017-Dec-02 03:30N 68°23' E 015°05'4 8.8
2017-Dec-02 03:00N 68°19' E 014°59'4 7.3
2017-Dec-02 02:30N 68°16' E 015°01'510.4
2017-Dec-02 02:00N 68°19' E 015°12'5 9.2
2017-Dec-02 01:30N 68°20' E 015°24'5 9.4
2017-Dec-02 01:00N 68°18' E 015°35'5 8.9
2017-Dec-02 00:29N 68°20' E 015°46'3 5.8
2017-Dec-02 00:00N 68°23' E 015°46'0 0.0
2017-Dec-01 23:29N 68°23' E 015°46'0 0.0
2017-Dec-01 23:01N 68°23' E 015°46'0 0.1
2017-Dec-01 22:30N 68°23' E 015°46'2 3.3
2017-Dec-01 22:00N 68°22' E 015°50'2 4.9
2017-Dec-01 21:31N 68°21' E 015°56'3 6.4
2017-Dec-01 21:00N 68°24' E 016°01'1 2.0
2017-Dec-01 20:30N 68°25' E 015°60'0 0.0
2017-Dec-01 20:00N 68°25' E 015°60'0 0.0
2017-Dec-01 19:30N 68°25' E 015°60'0 0.0
2017-Dec-01 19:00N 68°25' E 015°60'0 0.0
2017-Dec-01 18:30N 68°25' E 015°60'0 0.0
2017-Dec-01 18:00N 68°25' E 015°60'0 0.0
2017-Dec-01 17:30N 68°25' E 015°60'  
Track history (hours):
 
Tides and Currents Weather Stations Pressure Air Temp Water Temp Dewpoint Dewpoint Depression Visibility Wind Speed Wind Dir Waves Ship Positions

Veidnes

Last reported at 2017-Dec-11 17:00 UTC. Time now 2017-Dec-14 04:33 UTC.
Position N 67°43' E 015°13'.

Length 51 m; draft 5 m.

Type: Other ship. MMSI: 259237000.

Date/timePositionNaut miles runAvg speedWind from/ knotsBaromVisibWave heightAir tempDewpointWater temp
2017-Dec-11 17:00N 67°43' E 015°13'611.0
2017-Dec-11 16:30N 67°40' E 015°00'510.2
2017-Dec-11 16:00N 67°39' E 014°47'4 8.9
2017-Dec-11 15:30N 67°42' E 014°38'4 8.6
2017-Dec-11 15:00N 67°45' E 014°32'5 9.7
2017-Dec-11 14:30N 67°50' E 014°37'510.5
2017-Dec-11 13:59N 67°53' E 014°49'510.7
2017-Dec-11 13:30N 67°55' E 015°02'510.3
2017-Dec-11 13:00N 67°55' E 015°15'5 9.5
2017-Dec-11 12:30N 67°59' E 015°20'2 3.5
2017-Dec-11 11:58N 68°01' E 015°20'0 0.0
2017-Dec-11 11:28N 68°01' E 015°20'0 0.0
2017-Dec-11 10:58N 68°01' E 015°20'0 0.0
2017-Dec-11 10:22N 68°01' E 015°20'0 0.0
2017-Dec-11 09:57N 68°01' E 015°20'0 0.0
2017-Dec-11 09:19N 68°01' E 015°20'0 0.0
2017-Dec-11 08:55N 68°01' E 015°20'0 0.0
2017-Dec-11 08:27N 68°01' E 015°20'0 0.0
2017-Dec-11 07:57N 68°01' E 015°20'0 0.0
2017-Dec-11 07:30N 68°01' E 015°20'0 0.0
2017-Dec-11 07:00N 68°01' E 015°20'0 0.0
2017-Dec-11 06:21N 68°01' E 015°20'0 0.0
2017-Dec-11 05:57N 68°01' E 015°20'0 0.0
2017-Dec-11 05:30N 68°01' E 015°20'0 0.0
2017-Dec-11 05:00N 68°01' E 015°20'0 0.0
2017-Dec-11 04:30N 68°01' E 015°20'0 0.0
2017-Dec-11 04:00N 68°01' E 015°20'0 0.0
2017-Dec-11 03:30N 68°01' E 015°20'0 0.0
2017-Dec-11 02:45N 68°01' E 015°20'0 0.0
2017-Dec-11 02:15N 68°01' E 015°20'0 0.0
2017-Dec-11 01:48N 68°01' E 015°20'0 0.0
2017-Dec-11 01:30N 68°01' E 015°20'0 0.0
2017-Dec-11 00:54N 68°01' E 015°20'0 0.0
2017-Dec-11 00:30N 68°01' E 015°20'0 0.0
2017-Dec-11 00:00N 68°01' E 015°20'0 0.0
2017-Dec-10 23:30N 68°01' E 015°20'0 0.0
2017-Dec-10 22:54N 68°01' E 015°20'1 1.8
2017-Dec-10 22:30N 68°00' E 015°20'5 9.4
2017-Dec-10 22:00N 67°56' E 015°19'4 8.9
2017-Dec-10 21:30N 67°54' E 015°07'5 9.1
2017-Dec-10 21:00N 67°54' E 014°55'5 9.5
2017-Dec-10 20:29N 67°52' E 014°44'5 9.2
2017-Dec-10 20:00N 67°49' E 014°35'5 9.0
2017-Dec-10 19:30N 67°45' E 014°31'4 8.4
2017-Dec-10 19:00N 67°41' E 014°39'4 8.2
2017-Dec-10 18:30N 67°39' E 014°48'5 9.4
2017-Dec-10 18:00N 67°40' E 014°60'5 9.6
2017-Dec-10 17:30N 67°43' E 015°11'4 8.9
2017-Dec-10 17:00N 67°45' E 015°21'2 3.6
2017-Dec-10 16:21N 67°44' E 015°27'0 0.0
2017-Dec-10 16:00N 67°44' E 015°27'0 0.0
2017-Dec-10 15:30N 67°44' E 015°27'3 6.7
2017-Dec-10 15:00N 67°45' E 015°18'611.1
2017-Dec-10 14:30N 67°42' E 015°06'611.3
2017-Dec-10 13:59N 67°39' E 014°53'4 8.3
2017-Dec-10 13:30N 67°41' E 014°43'3 6.9
2017-Dec-10 12:59N 67°44' E 014°46'0 0.0
2017-Dec-10 12:29N 67°44' E 014°46'0 0.0
2017-Dec-10 11:59N 67°44' E 014°46'0 0.0
2017-Dec-10 11:29N 67°44' E 014°46'0 0.0
2017-Dec-10 10:59N 67°44' E 014°46'0 0.0
2017-Dec-10 10:29N 67°44' E 014°46'0 0.0
2017-Dec-10 09:59N 67°44' E 014°46'0 0.0
2017-Dec-10 09:29N 67°44' E 014°46'0 0.0
2017-Dec-10 08:59N 67°44' E 014°46'0 0.0
2017-Dec-10 08:29N 67°44' E 014°46'0 0.0
2017-Dec-10 07:59N 67°44' E 014°46'0 0.0
2017-Dec-10 07:29N 67°44' E 014°46'0 0.0
2017-Dec-10 06:59N 67°44' E 014°46'0 0.0
2017-Dec-10 06:29N 67°44' E 014°46'0 0.0
2017-Dec-10 05:59N 67°44' E 014°46'0 0.0
2017-Dec-10 05:29N 67°44' E 014°46'0 0.0
2017-Dec-10 04:59N 67°44' E 014°46'0 0.0
2017-Dec-10 04:29N 67°44' E 014°46'0 0.0
2017-Dec-10 03:59N 67°44' E 014°46'0 0.0
2017-Dec-10 03:29N 67°44' E 014°46'0 0.0
2017-Dec-10 02:59N 67°44' E 014°46'0 0.0
2017-Dec-10 02:29N 67°44' E 014°46'0 0.0
2017-Dec-10 01:59N 67°44' E 014°46'0 0.0
2017-Dec-10 01:29N 67°44' E 014°46'0 0.0
2017-Dec-10 00:59N 67°44' E 014°46'0 0.0
2017-Dec-10 00:29N 67°44' E 014°46'0 0.0
2017-Dec-09 23:59N 67°44' E 014°46'0 0.0
2017-Dec-09 23:26N 67°44' E 014°46'0 0.0
2017-Dec-09 22:59N 67°44' E 014°46'0 0.0
2017-Dec-09 22:29N 67°44' E 014°46'0 0.0
2017-Dec-09 21:59N 67°44' E 014°46'0 0.0
2017-Dec-09 21:29N 67°44' E 014°46'0 0.0
2017-Dec-09 20:59N 67°44' E 014°46'0 0.0
2017-Dec-09 20:29N 67°44' E 014°46'0 0.0
2017-Dec-09 19:59N 67°44' E 014°46'0 0.0
2017-Dec-09 19:29N 67°44' E 014°46'0 0.0
2017-Dec-09 18:59N 67°44' E 014°46'0 0.0
2017-Dec-09 18:29N 67°44' E 014°46'0 0.0
2017-Dec-09 17:59N 67°44' E 014°46'0 0.0
2017-Dec-09 17:29N 67°44' E 014°46'0 0.0
2017-Dec-09 16:59N 67°44' E 014°46'0 0.0
2017-Dec-09 16:29N 67°44' E 014°46'0 0.0
2017-Dec-09 15:59N 67°44' E 014°46'0 0.0
2017-Dec-09 15:29N 67°44' E 014°46'0 0.0
2017-Dec-09 14:59N 67°44' E 014°46'0 0.0
2017-Dec-09 14:29N 67°44' E 014°46'0 0.0
2017-Dec-09 13:59N 67°44' E 014°46'0 0.0
2017-Dec-09 13:29N 67°44' E 014°46'0 0.0
2017-Dec-09 12:59N 67°44' E 014°46'0 0.0
2017-Dec-09 12:29N 67°44' E 014°46'0 0.0
2017-Dec-09 11:59N 67°44' E 014°46'0 0.0
2017-Dec-09 11:29N 67°44' E 014°46'0 0.0
2017-Dec-09 10:58N 67°44' E 014°46'0 0.0
2017-Dec-09 10:28N 67°44' E 014°46'0 0.0
2017-Dec-09 09:58N 67°44' E 014°46'0 0.0
2017-Dec-09 09:28N 67°44' E 014°46'0 0.0
2017-Dec-09 08:58N 67°44' E 014°46'0 0.0
2017-Dec-09 08:28N 67°44' E 014°46'0 0.0
2017-Dec-09 07:58N 67°44' E 014°46'0 0.0
2017-Dec-09 07:28N 67°44' E 014°46'0 0.0
2017-Dec-09 06:58N 67°44' E 014°46'0 0.0
2017-Dec-09 06:28N 67°44' E 014°46'0 0.0
2017-Dec-09 05:58N 67°44' E 014°46'0 0.0
2017-Dec-09 05:28N 67°44' E 014°46'0 0.0
2017-Dec-09 04:58N 67°44' E 014°46'0 0.0
2017-Dec-09 04:28N 67°44' E 014°46'0 0.0
2017-Dec-09 03:58N 67°44' E 014°46'0 0.0
2017-Dec-09 03:28N 67°44' E 014°46'0 0.0
2017-Dec-09 02:58N 67°44' E 014°46'0 0.0
2017-Dec-09 02:28N 67°44' E 014°46'0 0.0
2017-Dec-09 01:58N 67°44' E 014°46'0 0.0
2017-Dec-09 01:28N 67°44' E 014°46'0 0.0
2017-Dec-09 00:58N 67°44' E 014°46'0 0.0
2017-Dec-09 00:28N 67°44' E 014°46'0 0.0
2017-Dec-08 23:58N 67°44' E 014°46'0 0.0
2017-Dec-08 23:28N 67°44' E 014°46'0 0.0
2017-Dec-08 22:58N 67°44' E 014°46'0 0.0
2017-Dec-08 22:28N 67°44' E 014°46'0 0.0
2017-Dec-08 21:58N 67°44' E 014°46'0 0.0
2017-Dec-08 21:28N 67°44' E 014°46'0 0.0
2017-Dec-08 20:58N 67°44' E 014°46'0 0.0
2017-Dec-08 20:28N 67°44' E 014°46'0 0.0
2017-Dec-08 19:58N 67°44' E 014°46'0 0.0
2017-Dec-08 19:28N 67°44' E 014°46'0 0.0
2017-Dec-08 18:58N 67°44' E 014°46'0 0.0
2017-Dec-08 18:28N 67°44' E 014°46'0 0.0
2017-Dec-08 17:58N 67°44' E 014°46'0 0.0
2017-Dec-08 17:28N 67°44' E 014°46'0 0.0
2017-Dec-08 16:58N 67°44' E 014°46'0 0.0
2017-Dec-08 16:28N 67°44' E 014°46'0 0.0
2017-Dec-08 15:58N 67°44' E 014°46'0 0.0
2017-Dec-08 15:28N 67°44' E 014°46'0 0.0
2017-Dec-08 14:58N 67°44' E 014°46'0 0.0
2017-Dec-08 14:28N 67°44' E 014°46'0 0.0
2017-Dec-08 13:58N 67°44' E 014°46'0 0.0
2017-Dec-08 13:28N 67°44' E 014°46'0 0.0
2017-Dec-08 12:58N 67°44' E 014°46'0 0.0
2017-Dec-08 12:28N 67°44' E 014°46'0 0.0
2017-Dec-08 11:58N 67°44' E 014°46'0 0.0
2017-Dec-08 11:28N 67°44' E 014°46'0 0.0
2017-Dec-08 10:58N 67°44' E 014°46'0 0.0
2017-Dec-08 10:28N 67°44' E 014°46'0 0.0
2017-Dec-08 09:58N 67°44' E 014°46'0 0.0
2017-Dec-08 09:28N 67°44' E 014°46'0 0.0
2017-Dec-08 08:58N 67°44' E 014°46'0 0.0
2017-Dec-08 08:28N 67°44' E 014°46'0 0.0
2017-Dec-08 07:58N 67°44' E 014°46'0 0.0
2017-Dec-08 07:28N 67°44' E 014°46'0 0.0
2017-Dec-08 06:58N 67°44' E 014°46'0 0.0
2017-Dec-08 06:28N 67°44' E 014°46'0 0.0
2017-Dec-08 05:58N 67°44' E 014°46'0 0.0
2017-Dec-08 05:28N 67°44' E 014°46'0 0.0
2017-Dec-08 04:58N 67°44' E 014°46'0 0.0
2017-Dec-08 04:28N 67°44' E 014°46'0 0.0
2017-Dec-08 03:58N 67°44' E 014°46'0 0.0
2017-Dec-08 03:27N 67°44' E 014°46'0 0.0
2017-Dec-08 03:01N 67°44' E 014°46'0 0.0
2017-Dec-08 02:31N 67°44' E 014°46'0 0.0
2017-Dec-08 02:00N 67°44' E 014°46'0 0.0
2017-Dec-08 01:30N 67°44' E 014°46'0 0.0
2017-Dec-08 01:00N 67°44' E 014°46'0 0.0
2017-Dec-08 00:30N 67°44' E 014°46'0 0.0
2017-Dec-08 00:00N 67°44' E 014°46'0 0.0
2017-Dec-07 23:30N 67°44' E 014°46'0 0.0
2017-Dec-07 23:00N 67°44' E 014°46'0 0.0
2017-Dec-07 22:30N 67°44' E 014°46'0 0.0
2017-Dec-07 22:00N 67°44' E 014°46'0 0.0
2017-Dec-07 21:30N 67°44' E 014°46'0 0.0
2017-Dec-07 21:00N 67°44' E 014°46'0 0.0
2017-Dec-07 20:30N 67°44' E 014°46'0 0.0
2017-Dec-07 20:00N 67°44' E 014°46'0 0.0
2017-Dec-07 19:30N 67°44' E 014°46'0 0.0
2017-Dec-07 19:00N 67°44' E 014°46'0 0.0
2017-Dec-07 18:30N 67°44' E 014°46'0 0.0
2017-Dec-07 18:00N 67°44' E 014°46'0 0.0
2017-Dec-07 17:30N 67°44' E 014°46'0 0.0
2017-Dec-07 17:00N 67°44' E 014°46'0 0.0
2017-Dec-07 16:30N 67°44' E 014°46'0 0.0
2017-Dec-07 16:00N 67°44' E 014°46'3 6.2
2017-Dec-07 15:31N 67°46' E 014°40'4 7.1
2017-Dec-07 15:01N 67°49' E 014°34'510.9
2017-Dec-07 14:30N 67°52' E 014°45'611.3
2017-Dec-07 14:00N 67°54' E 014°59'611.0
2017-Dec-07 13:30N 67°55' E 015°14'5 9.8
2017-Dec-07 13:00N 67°59' E 015°20'2 4.7
2017-Dec-07 12:30N 68°01' E 015°20'0 0.0
2017-Dec-07 12:00N 68°01' E 015°20'0 0.0
2017-Dec-07 11:18N 68°01' E 015°20'0 0.0
2017-Dec-07 11:00N 68°01' E 015°20'0 0.0
2017-Dec-07 10:30N 68°01' E 015°20'0 0.0
2017-Dec-07 10:00N 68°01' E 015°20'0 0.0
2017-Dec-07 09:12N 68°01' E 015°20'0 0.0
2017-Dec-07 08:54N 68°01' E 015°20'0 0.0
2017-Dec-07 08:30N 68°01' E 015°20'0 0.0
2017-Dec-07 08:00N 68°01' E 015°20'0 0.0
2017-Dec-07 07:30N 68°01' E 015°20'0 0.0
2017-Dec-07 07:00N 68°01' E 015°20'0 0.0
2017-Dec-07 06:30N 68°01' E 015°20'0 0.0
2017-Dec-07 05:54N 68°01' E 015°20'0 0.0
2017-Dec-07 05:27N 68°01' E 015°20'0 0.0
2017-Dec-07 04:54N 68°01' E 015°20'0 0.0
2017-Dec-07 04:27N 68°01' E 015°20'0 0.0
2017-Dec-07 03:57N 68°01' E 015°20'0 0.0
2017-Dec-07 03:30N 68°01' E 015°20'0 0.0
2017-Dec-07 02:54N 68°01' E 015°20'0 0.0
2017-Dec-07 02:27N 68°01' E 015°20'0 0.0
2017-Dec-07 02:00N 68°01' E 015°20'0 0.0
2017-Dec-07 01:30N 68°01' E 015°20'0 0.0
2017-Dec-07 00:54N 68°01' E 015°20'0 0.0
2017-Dec-07 00:30N 68°01' E 015°20'3 6.2
2017-Dec-07 00:00N 67°58' E 015°20'4 8.7
2017-Dec-06 23:30N 67°55' E 015°13'5 9.3
2017-Dec-06 23:00N 67°55' E 015°01'5 9.8
2017-Dec-06 22:30N 67°53' E 014°49'5 9.9
2017-Dec-06 22:00N 67°50' E 014°38'5 9.8
2017-Dec-06 21:30N 67°46' E 014°32'4 8.4
2017-Dec-06 21:00N 67°42' E 014°36'  
2017-Dec-04 10:28N 68°01' E 015°20'0 0.0
2017-Dec-04 09:52N 68°01' E 015°20'0 0.0
2017-Dec-04 09:28N 68°01' E 015°20'0 0.0
2017-Dec-04 08:58N 68°01' E 015°20'0 0.0
2017-Dec-04 08:28N 68°01' E 015°20'0 0.0
2017-Dec-04 07:58N 68°01' E 015°20'0 0.0
2017-Dec-04 07:22N 68°01' E 015°20'0 0.0
2017-Dec-04 06:58N 68°01' E 015°20'0 0.0
2017-Dec-04 06:28N 68°01' E 015°20'0 0.0
2017-Dec-04 05:55N 68°01' E 015°20'0 0.0
2017-Dec-04 05:25N 68°01' E 015°20'0 0.0
2017-Dec-04 04:46N 68°01' E 015°20'0 0.0
2017-Dec-04 04:22N 68°01' E 015°20'0 0.0
2017-Dec-04 03:58N 68°01' E 015°20'0 0.0
2017-Dec-04 03:22N 68°01' E 015°20'0 0.0
2017-Dec-04 02:46N 68°01' E 015°20'0 0.0
2017-Dec-04 02:10N 68°01' E 015°20'0 0.0
2017-Dec-04 01:58N 68°01' E 015°20'0 0.0
2017-Dec-04 01:22N 68°01' E 015°20'0 0.0
2017-Dec-04 00:58N 68°01' E 015°20'0 0.0
2017-Dec-04 00:28N 68°01' E 015°20'0 0.0
2017-Dec-03 23:58N 68°01' E 015°20'0 0.0
2017-Dec-03 23:30N 68°01' E 015°20'0 0.0
2017-Dec-03 23:00N 68°01' E 015°20'5 9.1
2017-Dec-03 22:30N 67°56' E 015°20'5 9.4
2017-Dec-03 22:00N 67°54' E 015°09'5 9.6
2017-Dec-03 21:30N 67°54' E 014°56'5 9.9
2017-Dec-03 21:00N 67°52' E 014°45'5 9.8
2017-Dec-03 20:30N 67°49' E 014°34'5 9.6
2017-Dec-03 20:00N 67°44' E 014°31'4 8.7
2017-Dec-03 19:29N 67°41' E 014°40'4 8.2
2017-Dec-03 19:00N 67°39' E 014°49'5 9.5
2017-Dec-03 18:29N 67°40' E 015°01'5 9.7
2017-Dec-03 18:00N 67°43' E 015°12'5 8.3
2017-Dec-03 17:27N 67°44' E 015°23'1 1.1
2017-Dec-03 16:17N 67°44' E 015°26'2 8.5
2017-Dec-03 16:00N 67°45' E 015°21'5 9.7
2017-Dec-03 15:28N 67°42' E 015°09'510.9
2017-Dec-03 14:59N 67°39' E 014°57'510.9
2017-Dec-03 14:30N 67°39' E 014°43'510.1
2017-Dec-03 14:00N 67°44' E 014°46'0 0.3
2017-Dec-03 13:30N 67°44' E 014°46'0 0.0
2017-Dec-03 13:00N 67°44' E 014°46'0 0.0
2017-Dec-03 12:30N 67°44' E 014°46'0 0.3
2017-Dec-03 11:59N 67°44' E 014°46'0 0.0
2017-Dec-03 11:29N 67°44' E 014°46'0 0.0
2017-Dec-03 10:59N 67°44' E 014°46'0 0.0
2017-Dec-03 10:29N 67°44' E 014°46'0 0.0
2017-Dec-03 09:59N 67°44' E 014°46'0 0.0
2017-Dec-03 09:29N 67°44' E 014°46'0 0.0
2017-Dec-03 08:59N 67°44' E 014°46'0 0.0
2017-Dec-03 08:29N 67°44' E 014°46'0 0.0
2017-Dec-03 07:59N 67°44' E 014°46'0 0.0
2017-Dec-03 07:29N 67°44' E 014°46'0 0.0
2017-Dec-03 06:59N 67°44' E 014°46'0 0.0
2017-Dec-03 06:29N 67°44' E 014°46'0 0.0
2017-Dec-03 05:59N 67°44' E 014°46'0 0.0
2017-Dec-03 05:29N 67°44' E 014°46'0 0.0
2017-Dec-03 04:59N 67°44' E 014°46'0 0.0
2017-Dec-03 04:29N 67°44' E 014°46'0 0.0
2017-Dec-03 03:59N 67°44' E 014°46'0 0.0
2017-Dec-03 03:29N 67°44' E 014°46'0 0.0
2017-Dec-03 02:59N 67°44' E 014°46'0 0.0
2017-Dec-03 02:29N 67°44' E 014°46'0 0.0
2017-Dec-03 01:59N 67°44' E 014°46'0 0.0
2017-Dec-03 01:29N 67°44' E 014°46'0 0.0
2017-Dec-03 00:59N 67°44' E 014°46'0 0.0
2017-Dec-03 00:29N 67°44' E 014°46'0 0.0
2017-Dec-02 23:59N 67°44' E 014°46'0 0.0
2017-Dec-02 23:29N 67°44' E 014°46'0 0.0
2017-Dec-02 22:58N 67°44' E 014°46'0 0.0
2017-Dec-02 22:28N 67°44' E 014°46'0 0.0
2017-Dec-02 21:58N 67°44' E 014°46'0 0.0
2017-Dec-02 21:28N 67°44' E 014°46'0 0.0
2017-Dec-02 20:58N 67°44' E 014°46'0 0.0
2017-Dec-02 20:28N 67°44' E 014°46'0 0.0
2017-Dec-02 19:58N 67°44' E 014°46'0 0.0
2017-Dec-02 19:28N 67°44' E 014°46'0 0.0
2017-Dec-02 18:58N 67°44' E 014°46'0 0.0
2017-Dec-02 18:28N 67°44' E 014°46'0 0.0
2017-Dec-02 17:58N 67°44' E 014°46'0 0.0
2017-Dec-02 17:28N 67°44' E 014°46'0 0.0
2017-Dec-02 16:58N 67°44' E 014°46'0 0.0
2017-Dec-02 16:29N 67°44' E 014°46'1 1.8
2017-Dec-02 16:00N 67°45' E 014°45'5 9.9
2017-Dec-02 15:30N 67°46' E 014°33'510.0
2017-Dec-02 15:01N 67°51' E 014°40'510.4
2017-Dec-02 14:30N 67°56' E 014°45'510.9
2017-Dec-02 14:00N 68°01' E 014°48'510.5
2017-Dec-02 13:30N 68°06' E 014°51'510.3
2017-Dec-02 13:00N 68°11' E 014°55'510.6
2017-Dec-02 12:30N 68°16' E 014°58'510.3
2017-Dec-02 11:59N 68°21' E 015°02'4 8.7
2017-Dec-02 11:30N 68°25' E 015°08'5 9.1
2017-Dec-02 11:00N 68°29' E 015°13'4 8.8
2017-Dec-02 10:29N 68°33' E 015°11'510.3
2017-Dec-02 10:00N 68°38' E 015°19'510.1
2017-Dec-02 09:29N 68°42' E 015°26'510.7
2017-Dec-02 09:00N 68°47' E 015°26'510.1
2017-Dec-02 08:30N 68°52' E 015°23'3 5.8
2017-Dec-02 08:00N 68°54' E 015°17'0 0.0
2017-Dec-02 07:30N 68°54' E 015°17'3 5.6
2017-Dec-02 07:00N 68°53' E 015°24'5 9.8
2017-Dec-02 06:30N 68°48' E 015°26'5 9.8
2017-Dec-02 06:00N 68°43' E 015°26'4 8.8
2017-Dec-02 05:30N 68°39' E 015°22'510.1
2017-Dec-02 05:00N 68°35' E 015°13'5 9.6
2017-Dec-02 04:30N 68°30' E 015°11'4 8.2
2017-Dec-02 04:00N 68°26' E 015°09'4 7.3
2017-Dec-02 03:30N 68°23' E 015°05'4 8.8
2017-Dec-02 03:00N 68°19' E 014°59'4 7.3
2017-Dec-02 02:30N 68°16' E 015°01'510.4
2017-Dec-02 02:00N 68°19' E 015°12'5 9.2
2017-Dec-02 01:30N 68°20' E 015°24'5 9.4
2017-Dec-02 01:00N 68°18' E 015°35'5 8.9
2017-Dec-02 00:29N 68°20' E 015°46'3 5.8
2017-Dec-02 00:00N 68°23' E 015°46'0 0.0
2017-Dec-01 23:29N 68°23' E 015°46'0 0.0
2017-Dec-01 23:01N 68°23' E 015°46'0 0.1
2017-Dec-01 22:30N 68°23' E 015°46'2 3.3
2017-Dec-01 22:00N 68°22' E 015°50'2 4.9
2017-Dec-01 21:31N 68°21' E 015°56'3 6.4
2017-Dec-01 21:00N 68°24' E 016°01'1 2.0
2017-Dec-01 20:30N 68°25' E 015°60'0 0.0
2017-Dec-01 20:00N 68°25' E 015°60'0 0.0
2017-Dec-01 19:30N 68°25' E 015°60'0 0.0
2017-Dec-01 19:00N 68°25' E 015°60'0 0.0
2017-Dec-01 18:30N 68°25' E 015°60'0 0.0
2017-Dec-01 18:00N 68°25' E 015°60'0 0.0
2017-Dec-01 17:30N 68°25' E 015°60'  

Dump ship's entire track history